sensor_id;sensor_type;location;lat;lon;timestamp;P1;durP1;ratioP1;P2;durP2;ratioP2
5175;SDS011;2607;50.934;6.934;2023-11-19T00:00:35;0.70;;;0.70;;
5175;SDS011;2607;50.934;6.934;2023-11-19T00:03:01;0.50;;;0.50;;
5175;SDS011;2607;50.934;6.934;2023-11-19T00:05:26;0.50;;;0.50;;
5175;SDS011;2607;50.934;6.934;2023-11-19T00:07:55;0.40;;;0.40;;
5175;SDS011;2607;50.934;6.934;2023-11-19T00:10:20;9.67;;;3.80;;
5175;SDS011;2607;50.934;6.934;2023-11-19T00:12:47;0.50;;;0.50;;
5175;SDS011;2607;50.934;6.934;2023-11-19T00:15:13;0.40;;;0.40;;
5175;SDS011;2607;50.934;6.934;2023-11-19T00:17:40;0.40;;;0.40;;
5175;SDS011;2607;50.934;6.934;2023-11-19T00:20:09;0.40;;;0.40;;
5175;SDS011;2607;50.934;6.934;2023-11-19T00:22:36;2.37;;;1.73;;
5175;SDS011;2607;50.934;6.934;2023-11-19T00:25:01;0.60;;;0.60;;
5175;SDS011;2607;50.934;6.934;2023-11-19T00:27:28;0.40;;;0.40;;
5175;SDS011;2607;50.934;6.934;2023-11-19T00:29:54;0.40;;;0.40;;
5175;SDS011;2607;50.934;6.934;2023-11-19T00:32:19;0.43;;;0.43;;
5175;SDS011;2607;50.934;6.934;2023-11-19T00:34:45;0.40;;;0.40;;
5175;SDS011;2607;50.934;6.934;2023-11-19T00:37:12;0.40;;;0.40;;
5175;SDS011;2607;50.934;6.934;2023-11-19T00:39:38;0.40;;;0.40;;
5175;SDS011;2607;50.934;6.934;2023-11-19T00:42:04;0.40;;;0.40;;
5175;SDS011;2607;50.934;6.934;2023-11-19T00:44:30;0.40;;;0.40;;
5175;SDS011;2607;50.934;6.934;2023-11-19T00:46:55;0.40;;;0.40;;
5175;SDS011;2607;50.934;6.934;2023-11-19T00:49:21;0.40;;;0.40;;
5175;SDS011;2607;50.934;6.934;2023-11-19T00:51:47;0.40;;;0.40;;
5175;SDS011;2607;50.934;6.934;2023-11-19T00:54:12;0.40;;;0.40;;
5175;SDS011;2607;50.934;6.934;2023-11-19T00:56:38;0.40;;;0.40;;
5175;SDS011;2607;50.934;6.934;2023-11-19T00:59:03;0.40;;;0.40;;
5175;SDS011;2607;50.934;6.934;2023-11-19T01:01:29;0.50;;;0.50;;
5175;SDS011;2607;50.934;6.934;2023-11-19T01:03:55;0.40;;;0.40;;
5175;SDS011;2607;50.934;6.934;2023-11-19T01:06:31;0.40;;;0.40;;
5175;SDS011;2607;50.934;6.934;2023-11-19T01:08:57;0.40;;;0.40;;
5175;SDS011;2607;50.934;6.934;2023-11-19T01:11:23;0.40;;;0.40;;
5175;SDS011;2607;50.934;6.934;2023-11-19T01:13:49;0.40;;;0.40;;
5175;SDS011;2607;50.934;6.934;2023-11-19T01:16:16;0.40;;;0.40;;
5175;SDS011;2607;50.934;6.934;2023-11-19T01:18:41;0.40;;;0.40;;
5175;SDS011;2607;50.934;6.934;2023-11-19T01:21:07;0.40;;;0.40;;
5175;SDS011;2607;50.934;6.934;2023-11-19T01:23:33;0.43;;;0.43;;
5175;SDS011;2607;50.934;6.934;2023-11-19T01:25:59;0.40;;;0.40;;
5175;SDS011;2607;50.934;6.934;2023-11-19T01:28:25;0.40;;;0.40;;
5175;SDS011;2607;50.934;6.934;2023-11-19T01:30:50;1.60;;;1.50;;
5175;SDS011;2607;50.934;6.934;2023-11-19T01:33:16;0.40;;;0.40;;
5175;SDS011;2607;50.934;6.934;2023-11-19T01:35:42;1.57;;;1.47;;
5175;SDS011;2607;50.934;6.934;2023-11-19T01:38:07;0.43;;;0.43;;
5175;SDS011;2607;50.934;6.934;2023-11-19T01:40:36;0.50;;;0.50;;
5175;SDS011;2607;50.934;6.934;2023-11-19T01:43:02;0.50;;;0.50;;
5175;SDS011;2607;50.934;6.934;2023-11-19T01:45:29;0.40;;;0.40;;
5175;SDS011;2607;50.934;6.934;2023-11-19T01:47:59;0.40;;;0.40;;
5175;SDS011;2607;50.934;6.934;2023-11-19T01:50:28;0.40;;;0.40;;
5175;SDS011;2607;50.934;6.934;2023-11-19T01:52:55;0.40;;;0.40;;
5175;SDS011;2607;50.934;6.934;2023-11-19T01:55:22;0.50;;;0.50;;
5175;SDS011;2607;50.934;6.934;2023-11-19T01:57:49;0.40;;;0.40;;
5175;SDS011;2607;50.934;6.934;2023-11-19T02:00:16;0.40;;;0.40;;
5175;SDS011;2607;50.934;6.934;2023-11-19T02:02:44;0.40;;;0.40;;
5175;SDS011;2607;50.934;6.934;2023-11-19T02:05:11;0.70;;;0.70;;
5175;SDS011;2607;50.934;6.934;2023-11-19T02:07:38;0.50;;;0.50;;
5175;SDS011;2607;50.934;6.934;2023-11-19T02:10:04;0.40;;;0.40;;
5175;SDS011;2607;50.934;6.934;2023-11-19T02:12:30;0.40;;;0.40;;
5175;SDS011;2607;50.934;6.934;2023-11-19T02:15:00;0.50;;;0.50;;
5175;SDS011;2607;50.934;6.934;2023-11-19T02:17:27;0.40;;;0.40;;
5175;SDS011;2607;50.934;6.934;2023-11-19T02:19:56;0.40;;;0.40;;
5175;SDS011;2607;50.934;6.934;2023-11-19T02:22:22;0.40;;;0.40;;
5175;SDS011;2607;50.934;6.934;2023-11-19T02:24:47;0.40;;;0.40;;
5175;SDS011;2607;50.934;6.934;2023-11-19T02:30:21;0.40;;;0.40;;
5175;SDS011;2607;50.934;6.934;2023-11-19T02:32:51;0.40;;;0.40;;
5175;SDS011;2607;50.934;6.934;2023-11-19T02:35:18;0.43;;;0.43;;
5175;SDS011;2607;50.934;6.934;2023-11-19T02:37:44;0.40;;;0.40;;
5175;SDS011;2607;50.934;6.934;2023-11-19T02:40:10;0.40;;;0.40;;
5175;SDS011;2607;50.934;6.934;2023-11-19T02:42:35;0.50;;;0.50;;
5175;SDS011;2607;50.934;6.934;2023-11-19T02:45:01;0.40;;;0.40;;
5175;SDS011;2607;50.934;6.934;2023-11-19T02:47:27;0.50;;;0.50;;
5175;SDS011;2607;50.934;6.934;2023-11-19T02:49:55;0.50;;;0.50;;
5175;SDS011;2607;50.934;6.934;2023-11-19T02:52:21;0.50;;;0.50;;
5175;SDS011;2607;50.934;6.934;2023-11-19T02:54:46;0.40;;;0.40;;
5175;SDS011;2607;50.934;6.934;2023-11-19T02:57:12;0.60;;;0.60;;
5175;SDS011;2607;50.934;6.934;2023-11-19T02:59:38;0.40;;;0.40;;
5175;SDS011;2607;50.934;6.934;2023-11-19T03:02:06;0.40;;;0.40;;
5175;SDS011;2607;50.934;6.934;2023-11-19T03:04:36;0.50;;;0.50;;
5175;SDS011;2607;50.934;6.934;2023-11-19T03:07:06;0.40;;;0.40;;
5175;SDS011;2607;50.934;6.934;2023-11-19T03:09:34;0.40;;;0.40;;
5175;SDS011;2607;50.934;6.934;2023-11-19T03:12:00;0.40;;;0.40;;
5175;SDS011;2607;50.934;6.934;2023-11-19T03:14:26;0.40;;;0.40;;
5175;SDS011;2607;50.934;6.934;2023-11-19T03:16:52;0.40;;;0.40;;
5175;SDS011;2607;50.934;6.934;2023-11-19T03:19:18;0.40;;;0.40;;
5175;SDS011;2607;50.934;6.934;2023-11-19T03:21:43;0.40;;;0.40;;
5175;SDS011;2607;50.934;6.934;2023-11-19T03:24:10;0.50;;;0.50;;
5175;SDS011;2607;50.934;6.934;2023-11-19T03:26:37;0.40;;;0.40;;
5175;SDS011;2607;50.934;6.934;2023-11-19T03:29:03;0.50;;;0.50;;
5175;SDS011;2607;50.934;6.934;2023-11-19T03:31:28;0.40;;;0.40;;
5175;SDS011;2607;50.934;6.934;2023-11-19T03:33:54;0.70;;;0.70;;
5175;SDS011;2607;50.934;6.934;2023-11-19T03:36:19;0.40;;;0.40;;
5175;SDS011;2607;50.934;6.934;2023-11-19T03:38:45;0.40;;;0.40;;
5175;SDS011;2607;50.934;6.934;2023-11-19T03:41:14;0.40;;;0.40;;
5175;SDS011;2607;50.934;6.934;2023-11-19T03:43:41;0.40;;;0.40;;
5175;SDS011;2607;50.934;6.934;2023-11-19T03:46:19;0.40;;;0.40;;
5175;SDS011;2607;50.934;6.934;2023-11-19T03:48:48;0.47;;;0.47;;
5175;SDS011;2607;50.934;6.934;2023-11-19T03:51:14;0.40;;;0.40;;
5175;SDS011;2607;50.934;6.934;2023-11-19T03:53:43;0.70;;;0.70;;
5175;SDS011;2607;50.934;6.934;2023-11-19T03:56:12;0.40;;;0.40;;
5175;SDS011;2607;50.934;6.934;2023-11-19T03:58:38;0.40;;;0.40;;
5175;SDS011;2607;50.934;6.934;2023-11-19T04:01:22;0.50;;;0.50;;
5175;SDS011;2607;50.934;6.934;2023-11-19T04:03:47;0.40;;;0.40;;
5175;SDS011;2607;50.934;6.934;2023-11-19T04:06:13;0.40;;;0.40;;
5175;SDS011;2607;50.934;6.934;2023-11-19T04:08:38;0.40;;;0.40;;
5175;SDS011;2607;50.934;6.934;2023-11-19T04:11:04;0.47;;;0.47;;
5175;SDS011;2607;50.934;6.934;2023-11-19T04:13:30;0.50;;;0.50;;
5175;SDS011;2607;50.934;6.934;2023-11-19T04:15:56;0.40;;;0.40;;
5175;SDS011;2607;50.934;6.934;2023-11-19T04:18:21;0.40;;;0.40;;
5175;SDS011;2607;50.934;6.934;2023-11-19T04:20:47;0.40;;;0.40;;
5175;SDS011;2607;50.934;6.934;2023-11-19T04:23:12;0.50;;;0.50;;
5175;SDS011;2607;50.934;6.934;2023-11-19T04:25:38;0.40;;;0.40;;
5175;SDS011;2607;50.934;6.934;2023-11-19T04:28:03;0.40;;;0.40;;
5175;SDS011;2607;50.934;6.934;2023-11-19T04:30:29;0.40;;;0.40;;
5175;SDS011;2607;50.934;6.934;2023-11-19T04:32:56;0.40;;;0.40;;
5175;SDS011;2607;50.934;6.934;2023-11-19T04:35:22;0.40;;;0.40;;
5175;SDS011;2607;50.934;6.934;2023-11-19T04:37:48;0.40;;;0.40;;
5175;SDS011;2607;50.934;6.934;2023-11-19T04:40:14;0.47;;;0.47;;
5175;SDS011;2607;50.934;6.934;2023-11-19T04:42:39;0.43;;;0.43;;
5175;SDS011;2607;50.934;6.934;2023-11-19T04:45:05;0.40;;;0.40;;
5175;SDS011;2607;50.934;6.934;2023-11-19T04:47:32;0.50;;;0.50;;
5175;SDS011;2607;50.934;6.934;2023-11-19T04:49:58;0.40;;;0.40;;
5175;SDS011;2607;50.934;6.934;2023-11-19T04:52:23;0.40;;;0.40;;
5175;SDS011;2607;50.934;6.934;2023-11-19T04:54:49;0.40;;;0.40;;
5175;SDS011;2607;50.934;6.934;2023-11-19T04:57:15;0.50;;;0.50;;
5175;SDS011;2607;50.934;6.934;2023-11-19T04:59:40;0.40;;;0.40;;
5175;SDS011;2607;50.934;6.934;2023-11-19T05:02:06;0.40;;;0.40;;
5175;SDS011;2607;50.934;6.934;2023-11-19T05:04:33;0.40;;;0.40;;
5175;SDS011;2607;50.934;6.934;2023-11-19T05:06:58;0.40;;;0.40;;
5175;SDS011;2607;50.934;6.934;2023-11-19T05:09:24;0.40;;;0.40;;
5175;SDS011;2607;50.934;6.934;2023-11-19T05:11:49;0.40;;;0.40;;
5175;SDS011;2607;50.934;6.934;2023-11-19T05:14:15;0.50;;;0.50;;
5175;SDS011;2607;50.934;6.934;2023-11-19T05:16:41;0.40;;;0.40;;
5175;SDS011;2607;50.934;6.934;2023-11-19T05:19:07;0.40;;;0.40;;
5175;SDS011;2607;50.934;6.934;2023-11-19T05:21:34;0.50;;;0.50;;
5175;SDS011;2607;50.934;6.934;2023-11-19T05:24:01;0.50;;;0.50;;
5175;SDS011;2607;50.934;6.934;2023-11-19T05:26:29;0.40;;;0.40;;
5175;SDS011;2607;50.934;6.934;2023-11-19T05:28:55;0.43;;;0.43;;
5175;SDS011;2607;50.934;6.934;2023-11-19T05:31:21;0.40;;;0.40;;
5175;SDS011;2607;50.934;6.934;2023-11-19T05:33:46;0.50;;;0.50;;
5175;SDS011;2607;50.934;6.934;2023-11-19T05:36:12;0.40;;;0.40;;
5175;SDS011;2607;50.934;6.934;2023-11-19T05:38:38;0.40;;;0.40;;
5175;SDS011;2607;50.934;6.934;2023-11-19T05:41:04;0.40;;;0.40;;
5175;SDS011;2607;50.934;6.934;2023-11-19T05:43:30;0.40;;;0.40;;
5175;SDS011;2607;50.934;6.934;2023-11-19T05:45:56;0.40;;;0.40;;
5175;SDS011;2607;50.934;6.934;2023-11-19T05:48:21;0.50;;;0.50;;
5175;SDS011;2607;50.934;6.934;2023-11-19T05:50:47;0.50;;;0.50;;
5175;SDS011;2607;50.934;6.934;2023-11-19T05:53:14;0.50;;;0.50;;
5175;SDS011;2607;50.934;6.934;2023-11-19T05:55:40;0.40;;;0.40;;
5175;SDS011;2607;50.934;6.934;2023-11-19T05:58:13;2.97;;;1.23;;
5175;SDS011;2607;50.934;6.934;2023-11-19T06:00:39;0.50;;;0.50;;
5175;SDS011;2607;50.934;6.934;2023-11-19T06:03:08;0.50;;;0.50;;
5175;SDS011;2607;50.934;6.934;2023-11-19T06:05:34;0.40;;;0.40;;
5175;SDS011;2607;50.934;6.934;2023-11-19T06:07:59;0.40;;;0.40;;
5175;SDS011;2607;50.934;6.934;2023-11-19T06:10:25;0.40;;;0.40;;
5175;SDS011;2607;50.934;6.934;2023-11-19T06:12:55;0.40;;;0.40;;
5175;SDS011;2607;50.934;6.934;2023-11-19T06:15:30;2.30;;;1.80;;
5175;SDS011;2607;50.934;6.934;2023-11-19T06:17:55;0.40;;;0.40;;
5175;SDS011;2607;50.934;6.934;2023-11-19T06:20:23;0.40;;;0.40;;
5175;SDS011;2607;50.934;6.934;2023-11-19T06:22:48;0.40;;;0.40;;
5175;SDS011;2607;50.934;6.934;2023-11-19T06:25:14;0.50;;;0.50;;
5175;SDS011;2607;50.934;6.934;2023-11-19T06:27:40;0.40;;;0.40;;
5175;SDS011;2607;50.934;6.934;2023-11-19T06:30:07;0.50;;;0.50;;
5175;SDS011;2607;50.934;6.934;2023-11-19T06:32:33;0.40;;;0.40;;
5175;SDS011;2607;50.934;6.934;2023-11-19T06:34:59;0.40;;;0.40;;
5175;SDS011;2607;50.934;6.934;2023-11-19T06:37:24;0.40;;;0.40;;
5175;SDS011;2607;50.934;6.934;2023-11-19T06:39:50;0.40;;;0.40;;
5175;SDS011;2607;50.934;6.934;2023-11-19T06:42:16;0.40;;;0.40;;
5175;SDS011;2607;50.934;6.934;2023-11-19T06:44:42;0.40;;;0.40;;
5175;SDS011;2607;50.934;6.934;2023-11-19T06:47:07;0.40;;;0.40;;
5175;SDS011;2607;50.934;6.934;2023-11-19T06:49:33;0.40;;;0.40;;
5175;SDS011;2607;50.934;6.934;2023-11-19T06:51:59;0.50;;;0.50;;
5175;SDS011;2607;50.934;6.934;2023-11-19T06:54:24;0.40;;;0.40;;
5175;SDS011;2607;50.934;6.934;2023-11-19T06:56:50;0.40;;;0.40;;
5175;SDS011;2607;50.934;6.934;2023-11-19T06:59:16;0.40;;;0.40;;
5175;SDS011;2607;50.934;6.934;2023-11-19T07:01:41;0.40;;;0.40;;
5175;SDS011;2607;50.934;6.934;2023-11-19T07:04:10;0.50;;;0.50;;
5175;SDS011;2607;50.934;6.934;2023-11-19T07:06:37;0.50;;;0.50;;
5175;SDS011;2607;50.934;6.934;2023-11-19T07:09:03;0.40;;;0.40;;
5175;SDS011;2607;50.934;6.934;2023-11-19T07:11:40;0.50;;;0.50;;
5175;SDS011;2607;50.934;6.934;2023-11-19T07:14:07;0.80;;;0.80;;
5175;SDS011;2607;50.934;6.934;2023-11-19T07:16:33;0.50;;;0.50;;
5175;SDS011;2607;50.934;6.934;2023-11-19T07:19:03;0.50;;;0.50;;
5175;SDS011;2607;50.934;6.934;2023-11-19T07:21:30;0.50;;;0.50;;
5175;SDS011;2607;50.934;6.934;2023-11-19T07:23:56;0.80;;;0.80;;
5175;SDS011;2607;50.934;6.934;2023-11-19T07:26:22;6.63;;;1.37;;
5175;SDS011;2607;50.934;6.934;2023-11-19T07:28:48;19.20;;;1.73;;
5175;SDS011;2607;50.934;6.934;2023-11-19T07:31:15;9.53;;;4.07;;
5175;SDS011;2607;50.934;6.934;2023-11-19T07:33:41;3.80;;;2.13;;
5175;SDS011;2607;50.934;6.934;2023-11-19T07:36:09;8.40;;;1.20;;
5175;SDS011;2607;50.934;6.934;2023-11-19T07:38:35;13.27;;;2.03;;
5175;SDS011;2607;50.934;6.934;2023-11-19T07:41:01;6.50;;;2.33;;
5175;SDS011;2607;50.934;6.934;2023-11-19T07:43:27;9.13;;;2.53;;
5175;SDS011;2607;50.934;6.934;2023-11-19T07:45:52;9.50;;;2.40;;
5175;SDS011;2607;50.934;6.934;2023-11-19T07:48:18;20.93;;;2.33;;
5175;SDS011;2607;50.934;6.934;2023-11-19T07:50:48;15.47;;;2.30;;
5175;SDS011;2607;50.934;6.934;2023-11-19T07:53:17;5.97;;;1.70;;
5175;SDS011;2607;50.934;6.934;2023-11-19T07:55:43;13.17;;;1.73;;
5175;SDS011;2607;50.934;6.934;2023-11-19T07:58:09;8.03;;;1.90;;
5175;SDS011;2607;50.934;6.934;2023-11-19T08:00:38;8.53;;;2.67;;
5175;SDS011;2607;50.934;6.934;2023-11-19T08:03:03;12.57;;;2.87;;
5175;SDS011;2607;50.934;6.934;2023-11-19T08:05:30;12.33;;;2.80;;
5175;SDS011;2607;50.934;6.934;2023-11-19T08:07:56;22.00;;;3.30;;
5175;SDS011;2607;50.934;6.934;2023-11-19T08:10:22;6.93;;;2.40;;
5175;SDS011;2607;50.934;6.934;2023-11-19T08:12:47;25.33;;;3.50;;
5175;SDS011;2607;50.934;6.934;2023-11-19T08:15:13;9.13;;;3.10;;
5175;SDS011;2607;50.934;6.934;2023-11-19T08:17:39;16.93;;;4.03;;
5175;SDS011;2607;50.934;6.934;2023-11-19T08:20:05;21.67;;;3.57;;
5175;SDS011;2607;50.934;6.934;2023-11-19T08:22:35;22.80;;;4.33;;
5175;SDS011;2607;50.934;6.934;2023-11-19T08:25:01;13.00;;;3.33;;
5175;SDS011;2607;50.934;6.934;2023-11-19T08:27:27;13.63;;;3.97;;
5175;SDS011;2607;50.934;6.934;2023-11-19T08:29:53;22.07;;;3.80;;
5175;SDS011;2607;50.934;6.934;2023-11-19T08:32:23;10.77;;;3.27;;
5175;SDS011;2607;50.934;6.934;2023-11-19T08:34:49;20.33;;;4.30;;
5175;SDS011;2607;50.934;6.934;2023-11-19T08:37:14;16.83;;;4.47;;
5175;SDS011;2607;50.934;6.934;2023-11-19T08:39:40;18.77;;;3.77;;
5175;SDS011;2607;50.934;6.934;2023-11-19T08:42:07;19.60;;;3.80;;
5175;SDS011;2607;50.934;6.934;2023-11-19T08:44:32;12.80;;;3.20;;
5175;SDS011;2607;50.934;6.934;2023-11-19T08:46:58;28.70;;;4.40;;
5175;SDS011;2607;50.934;6.934;2023-11-19T08:49:23;25.63;;;4.70;;
5175;SDS011;2607;50.934;6.934;2023-11-19T08:51:49;12.33;;;3.47;;
5175;SDS011;2607;50.934;6.934;2023-11-19T08:54:14;20.33;;;3.77;;
5175;SDS011;2607;50.934;6.934;2023-11-19T08:56:40;13.07;;;2.93;;
5175;SDS011;2607;50.934;6.934;2023-11-19T08:59:06;11.87;;;3.53;;
5175;SDS011;2607;50.934;6.934;2023-11-19T09:01:31;30.23;;;4.43;;
5175;SDS011;2607;50.934;6.934;2023-11-19T09:03:57;17.23;;;4.10;;
5175;SDS011;2607;50.934;6.934;2023-11-19T09:06:23;17.53;;;3.90;;
5175;SDS011;2607;50.934;6.934;2023-11-19T09:08:48;14.13;;;3.30;;
5175;SDS011;2607;50.934;6.934;2023-11-19T09:11:14;17.73;;;4.30;;
5175;SDS011;2607;50.934;6.934;2023-11-19T09:13:39;21.57;;;3.80;;
5175;SDS011;2607;50.934;6.934;2023-11-19T09:16:05;15.13;;;4.90;;
5175;SDS011;2607;50.934;6.934;2023-11-19T09:18:31;23.93;;;4.07;;
5175;SDS011;2607;50.934;6.934;2023-11-19T09:20:57;13.73;;;3.30;;
5175;SDS011;2607;50.934;6.934;2023-11-19T09:23:23;18.40;;;3.70;;
5175;SDS011;2607;50.934;6.934;2023-11-19T09:25:50;13.10;;;4.57;;
5175;SDS011;2607;50.934;6.934;2023-11-19T09:28:15;30.07;;;4.30;;
5175;SDS011;2607;50.934;6.934;2023-11-19T09:30:41;19.73;;;4.37;;
5175;SDS011;2607;50.934;6.934;2023-11-19T09:33:07;20.97;;;4.07;;
5175;SDS011;2607;50.934;6.934;2023-11-19T09:35:32;22.13;;;4.40;;
5175;SDS011;2607;50.934;6.934;2023-11-19T09:37:58;19.77;;;6.33;;
5175;SDS011;2607;50.934;6.934;2023-11-19T09:40:24;14.80;;;4.07;;
5175;SDS011;2607;50.934;6.934;2023-11-19T09:42:50;35.30;;;4.63;;
5175;SDS011;2607;50.934;6.934;2023-11-19T09:45:16;17.50;;;3.47;;
5175;SDS011;2607;50.934;6.934;2023-11-19T09:47:45;15.70;;;4.33;;
5175;SDS011;2607;50.934;6.934;2023-11-19T09:50:18;15.53;;;4.60;;
5175;SDS011;2607;50.934;6.934;2023-11-19T09:52:45;18.30;;;4.20;;
5175;SDS011;2607;50.934;6.934;2023-11-19T09:55:14;27.37;;;3.90;;
5175;SDS011;2607;50.934;6.934;2023-11-19T09:57:40;22.27;;;5.43;;
5175;SDS011;2607;50.934;6.934;2023-11-19T10:00:07;13.53;;;3.83;;
5175;SDS011;2607;50.934;6.934;2023-11-19T10:02:35;17.30;;;3.80;;
5175;SDS011;2607;50.934;6.934;2023-11-19T10:05:02;14.60;;;3.53;;
5175;SDS011;2607;50.934;6.934;2023-11-19T10:07:31;23.03;;;4.10;;
5175;SDS011;2607;50.934;6.934;2023-11-19T10:09:58;24.43;;;5.17;;
5175;SDS011;2607;50.934;6.934;2023-11-19T10:12:25;23.13;;;4.20;;
5175;SDS011;2607;50.934;6.934;2023-11-19T10:14:52;14.83;;;4.20;;
5175;SDS011;2607;50.934;6.934;2023-11-19T10:17:21;24.37;;;5.20;;
5175;SDS011;2607;50.934;6.934;2023-11-19T10:19:46;17.87;;;3.70;;
5175;SDS011;2607;50.934;6.934;2023-11-19T10:22:12;20.40;;;3.10;;
5175;SDS011;2607;50.934;6.934;2023-11-19T10:24:39;14.63;;;3.60;;
5175;SDS011;2607;50.934;6.934;2023-11-19T10:27:08;30.03;;;8.33;;
5175;SDS011;2607;50.934;6.934;2023-11-19T10:29:37;18.17;;;4.90;;
5175;SDS011;2607;50.934;6.934;2023-11-19T10:32:03;19.17;;;4.07;;
5175;SDS011;2607;50.934;6.934;2023-11-19T10:34:29;18.27;;;4.40;;
5175;SDS011;2607;50.934;6.934;2023-11-19T10:36:55;15.77;;;3.97;;
5175;SDS011;2607;50.934;6.934;2023-11-19T10:39:20;14.10;;;3.60;;
5175;SDS011;2607;50.934;6.934;2023-11-19T10:41:46;16.23;;;4.20;;
5175;SDS011;2607;50.934;6.934;2023-11-19T10:44:11;14.70;;;3.47;;
5175;SDS011;2607;50.934;6.934;2023-11-19T10:46:38;17.10;;;4.10;;
5175;SDS011;2607;50.934;6.934;2023-11-19T10:49:05;16.07;;;5.10;;
5175;SDS011;2607;50.934;6.934;2023-11-19T10:51:31;16.80;;;4.80;;
5175;SDS011;2607;50.934;6.934;2023-11-19T10:54:02;16.93;;;4.03;;
5175;SDS011;2607;50.934;6.934;2023-11-19T10:56:32;12.20;;;3.23;;
5175;SDS011;2607;50.934;6.934;2023-11-19T10:58:59;14.77;;;4.10;;
5175;SDS011;2607;50.934;6.934;2023-11-19T11:01:26;15.37;;;3.50;;
5175;SDS011;2607;50.934;6.934;2023-11-19T11:03:58;13.53;;;4.47;;
5175;SDS011;2607;50.934;6.934;2023-11-19T11:06:25;19.27;;;4.40;;
5175;SDS011;2607;50.934;6.934;2023-11-19T11:08:52;17.83;;;5.20;;
5175;SDS011;2607;50.934;6.934;2023-11-19T11:11:19;16.10;;;4.10;;
5175;SDS011;2607;50.934;6.934;2023-11-19T11:13:49;15.80;;;3.50;;
5175;SDS011;2607;50.934;6.934;2023-11-19T11:16:16;21.70;;;4.97;;
5175;SDS011;2607;50.934;6.934;2023-11-19T11:18:44;11.77;;;4.67;;
5175;SDS011;2607;50.934;6.934;2023-11-19T11:21:17;12.60;;;3.47;;
5175;SDS011;2607;50.934;6.934;2023-11-19T11:29:45;21.00;;;5.00;;
5175;SDS011;2607;50.934;6.934;2023-11-19T11:32:34;22.70;;;6.27;;
5175;SDS011;2607;50.934;6.934;2023-11-19T11:38:12;16.33;;;3.73;;
5175;SDS011;2607;50.934;6.934;2023-11-19T11:40:40;25.87;;;6.30;;
5175;SDS011;2607;50.934;6.934;2023-11-19T11:43:39;16.40;;;5.83;;
5175;SDS011;2607;50.934;6.934;2023-11-19T11:46:53;11.20;;;3.70;;
5175;SDS011;2607;50.934;6.934;2023-11-19T11:49:03;12.17;;;3.10;;
5175;SDS011;2607;50.934;6.934;2023-11-19T11:54:08;17.50;;;6.23;;
5175;SDS011;2607;50.934;6.934;2023-11-19T11:56:36;12.60;;;3.27;;
5175;SDS011;2607;50.934;6.934;2023-11-19T11:59:03;18.37;;;3.40;;
5175;SDS011;2607;50.934;6.934;2023-11-19T12:01:32;16.90;;;3.50;;
5175;SDS011;2607;50.934;6.934;2023-11-19T12:03:57;8.67;;;2.90;;
5175;SDS011;2607;50.934;6.934;2023-11-19T12:06:23;10.37;;;2.90;;
5175;SDS011;2607;50.934;6.934;2023-11-19T12:08:49;8.37;;;3.03;;
5175;SDS011;2607;50.934;6.934;2023-11-19T12:11:15;16.20;;;4.03;;
5175;SDS011;2607;50.934;6.934;2023-11-19T12:13:52;14.23;;;3.90;;
5175;SDS011;2607;50.934;6.934;2023-11-19T12:16:23;9.60;;;2.97;;
5175;SDS011;2607;50.934;6.934;2023-11-19T12:18:49;11.93;;;4.10;;
5175;SDS011;2607;50.934;6.934;2023-11-19T12:21:27;13.87;;;2.80;;
5175;SDS011;2607;50.934;6.934;2023-11-19T12:23:55;8.13;;;3.33;;
5175;SDS011;2607;50.934;6.934;2023-11-19T12:26:32;6.53;;;2.97;;
5175;SDS011;2607;50.934;6.934;2023-11-19T12:29:02;14.03;;;2.63;;
5175;SDS011;2607;50.934;6.934;2023-11-19T12:31:31;14.73;;;3.10;;
5175;SDS011;2607;50.934;6.934;2023-11-19T12:33:56;10.70;;;2.80;;
5175;SDS011;2607;50.934;6.934;2023-11-19T12:36:22;11.90;;;3.10;;
5175;SDS011;2607;50.934;6.934;2023-11-19T12:38:48;14.00;;;4.47;;
5175;SDS011;2607;50.934;6.934;2023-11-19T12:41:14;13.33;;;3.13;;
5175;SDS011;2607;50.934;6.934;2023-11-19T12:43:42;14.33;;;2.63;;
5175;SDS011;2607;50.934;6.934;2023-11-19T12:46:20;13.97;;;5.40;;
5175;SDS011;2607;50.934;6.934;2023-11-19T12:48:48;6.60;;;2.87;;
5175;SDS011;2607;50.934;6.934;2023-11-19T12:51:14;9.60;;;3.03;;
5175;SDS011;2607;50.934;6.934;2023-11-19T12:56:22;10.60;;;3.00;;
5175;SDS011;2607;50.934;6.934;2023-11-19T12:58:48;13.07;;;3.23;;
5175;SDS011;2607;50.934;6.934;2023-11-19T13:01:15;11.40;;;3.23;;
5175;SDS011;2607;50.934;6.934;2023-11-19T13:03:43;14.00;;;5.40;;
5175;SDS011;2607;50.934;6.934;2023-11-19T13:06:09;10.37;;;2.73;;
5175;SDS011;2607;50.934;6.934;2023-11-19T13:11:03;7.83;;;2.43;;
5175;SDS011;2607;50.934;6.934;2023-11-19T13:13:29;8.50;;;3.53;;
5175;SDS011;2607;50.934;6.934;2023-11-19T13:16:01;6.60;;;3.00;;
5175;SDS011;2607;50.934;6.934;2023-11-19T13:18:28;7.80;;;3.40;;
5175;SDS011;2607;50.934;6.934;2023-11-19T13:20:54;12.93;;;3.00;;
5175;SDS011;2607;50.934;6.934;2023-11-19T13:23:22;7.60;;;2.93;;
5175;SDS011;2607;50.934;6.934;2023-11-19T13:25:47;11.00;;;4.30;;
5175;SDS011;2607;50.934;6.934;2023-11-19T13:28:14;15.27;;;3.63;;
5175;SDS011;2607;50.934;6.934;2023-11-19T13:30:39;12.77;;;3.10;;
5175;SDS011;2607;50.934;6.934;2023-11-19T13:33:05;13.70;;;4.80;;
5175;SDS011;2607;50.934;6.934;2023-11-19T13:35:30;7.87;;;4.13;;
5175;SDS011;2607;50.934;6.934;2023-11-19T13:37:56;9.50;;;3.27;;
5175;SDS011;2607;50.934;6.934;2023-11-19T13:40:21;11.00;;;3.60;;
5175;SDS011;2607;50.934;6.934;2023-11-19T13:42:49;12.73;;;3.13;;
5175;SDS011;2607;50.934;6.934;2023-11-19T13:45:16;11.03;;;3.93;;
5175;SDS011;2607;50.934;6.934;2023-11-19T13:47:44;12.97;;;3.30;;
5175;SDS011;2607;50.934;6.934;2023-11-19T13:50:11;23.00;;;3.97;;
5175;SDS011;2607;50.934;6.934;2023-11-19T13:52:38;17.00;;;5.00;;
5175;SDS011;2607;50.934;6.934;2023-11-19T13:55:06;15.30;;;3.27;;
5175;SDS011;2607;50.934;6.934;2023-11-19T13:57:33;15.83;;;4.83;;
5175;SDS011;2607;50.934;6.934;2023-11-19T14:00:00;13.90;;;3.40;;
5175;SDS011;2607;50.934;6.934;2023-11-19T14:02:30;13.43;;;3.43;;
5175;SDS011;2607;50.934;6.934;2023-11-19T14:04:55;20.13;;;4.53;;
5175;SDS011;2607;50.934;6.934;2023-11-19T14:07:21;14.90;;;3.63;;
5175;SDS011;2607;50.934;6.934;2023-11-19T14:09:46;15.23;;;3.40;;
5175;SDS011;2607;50.934;6.934;2023-11-19T14:12:12;7.80;;;2.90;;
5175;SDS011;2607;50.934;6.934;2023-11-19T14:14:38;18.27;;;4.20;;
5175;SDS011;2607;50.934;6.934;2023-11-19T14:17:04;13.03;;;3.43;;
5175;SDS011;2607;50.934;6.934;2023-11-19T14:19:30;14.30;;;2.90;;
5175;SDS011;2607;50.934;6.934;2023-11-19T14:21:55;8.90;;;3.00;;
5175;SDS011;2607;50.934;6.934;2023-11-19T14:24:21;12.93;;;4.77;;
5175;SDS011;2607;50.934;6.934;2023-11-19T14:26:47;10.40;;;3.57;;
5175;SDS011;2607;50.934;6.934;2023-11-19T14:29:13;9.63;;;3.47;;
5175;SDS011;2607;50.934;6.934;2023-11-19T14:31:39;16.27;;;3.40;;
5175;SDS011;2607;50.934;6.934;2023-11-19T14:34:05;11.03;;;4.17;;
5175;SDS011;2607;50.934;6.934;2023-11-19T14:36:30;18.37;;;3.70;;
5175;SDS011;2607;50.934;6.934;2023-11-19T14:38:56;8.40;;;3.10;;
5175;SDS011;2607;50.934;6.934;2023-11-19T14:41:23;14.10;;;4.07;;
5175;SDS011;2607;50.934;6.934;2023-11-19T14:43:49;11.53;;;4.43;;
5175;SDS011;2607;50.934;6.934;2023-11-19T14:46:15;11.97;;;4.10;;
5175;SDS011;2607;50.934;6.934;2023-11-19T14:48:40;14.20;;;3.60;;
5175;SDS011;2607;50.934;6.934;2023-11-19T14:51:06;11.20;;;2.77;;
5175;SDS011;2607;50.934;6.934;2023-11-19T14:53:31;11.50;;;3.27;;
5175;SDS011;2607;50.934;6.934;2023-11-19T14:55:58;10.10;;;3.53;;
5175;SDS011;2607;50.934;6.934;2023-11-19T14:58:23;8.03;;;3.00;;
5175;SDS011;2607;50.934;6.934;2023-11-19T15:00:50;8.53;;;2.53;;
5175;SDS011;2607;50.934;6.934;2023-11-19T15:03:16;16.83;;;6.33;;
5175;SDS011;2607;50.934;6.934;2023-11-19T15:05:44;15.23;;;3.13;;
5175;SDS011;2607;50.934;6.934;2023-11-19T15:08:13;13.67;;;2.50;;
5175;SDS011;2607;50.934;6.934;2023-11-19T15:10:41;9.47;;;2.73;;
5175;SDS011;2607;50.934;6.934;2023-11-19T15:13:07;20.00;;;3.80;;
5175;SDS011;2607;50.934;6.934;2023-11-19T15:15:33;11.77;;;3.37;;
5175;SDS011;2607;50.934;6.934;2023-11-19T15:17:59;19.37;;;3.10;;
5175;SDS011;2607;50.934;6.934;2023-11-19T15:20:25;15.10;;;4.07;;
5175;SDS011;2607;50.934;6.934;2023-11-19T15:22:54;10.03;;;3.07;;
5175;SDS011;2607;50.934;6.934;2023-11-19T15:25:20;8.80;;;2.83;;
5175;SDS011;2607;50.934;6.934;2023-11-19T15:27:47;9.07;;;2.63;;